Lehman Caves, Nevada
Current Conditions -  °F | °C
As of 1:53 PM on Friday 31 Oct 2014 (Local Time) from KELY Reporting Station
Clear Clear  
Wind Chill: 65°   Ceiling: Unl
Heat Index: 65°   Visibility: 10mi
Dew Point: 23°   Wind: 20mph
Humidity: 20%   Direction: 170°S
Pressure: 29.93"   Gusts: 31mph
Location:  39.1253°N, 114.292°W
Report Text: KELY 312053Z AUTO 17017G27KT 10SM CLR 18/M05 A2993 RMK AO2 PK WND 17029/2043 SLP059 T01831050 58022
Loading
Personal Weather Stations






























Interactive Weather Map
Tropical Storm Tracking
New forecast layout! Learn more

10-Day Weather Forecast

Advertisements
Track Severe Weather on mobile